createdAt,value
2022-11-09T00:00:05.038Z,9.60
2022-11-09T00:02:43.827Z,9.50
2022-11-09T00:05:22.233Z,9.60
2022-11-09T00:07:55.556Z,9.50
2022-11-09T00:10:24.352Z,9.50
2022-11-09T00:15:56.193Z,9.50
2022-11-09T00:18:27.654Z,9.50
2022-11-09T00:20:58.913Z,9.50
2022-11-09T00:23:36.331Z,9.50
2022-11-09T00:26:28.816Z,9.50
2022-11-09T00:29:00.561Z,9.50
2022-11-09T00:31:49.224Z,9.50
2022-11-09T00:37:23.746Z,9.40
2022-11-09T00:39:57.936Z,9.50
2022-11-09T00:42:28.867Z,9.50
2022-11-09T00:45:11.360Z,9.50
2022-11-09T00:47:48.676Z,9.40
2022-11-09T00:50:31.595Z,9.50
2022-11-09T00:53:05.402Z,9.50
2022-11-09T00:55:38.499Z,9.40
2022-11-09T00:58:13.283Z,9.40
2022-11-09T01:00:54.716Z,9.40
2022-11-09T01:03:28.997Z,9.40
2022-11-09T01:06:15.517Z,9.40
2022-11-09T01:08:48.321Z,9.40
2022-11-09T01:11:19.716Z,9.40
2022-11-09T01:13:51.112Z,9.40
2022-11-09T01:16:30.569Z,9.40
2022-11-09T01:19:04.330Z,9.30
2022-11-09T01:21:45.930Z,9.30
2022-11-09T01:24:14.664Z,9.30
2022-11-09T01:26:45.229Z,9.30
2022-11-09T01:29:19.212Z,9.40
2022-11-09T01:31:48.756Z,9.30
2022-11-09T01:34:30.864Z,9.30
2022-11-09T01:36:59.213Z,9.30
2022-11-09T01:39:27.351Z,9.30
2022-11-09T01:41:55.585Z,9.40
2022-11-09T01:44:23.965Z,9.40
2022-11-09T01:46:56.524Z,9.30
2022-11-09T01:49:46.498Z,9.30
2022-11-09T01:52:32.276Z,9.30
2022-11-09T01:55:04.371Z,9.30
2022-11-09T01:57:35.382Z,9.30
2022-11-09T02:00:07.524Z,9.20
2022-11-09T02:02:49.537Z,9.20
2022-11-09T02:05:24.912Z,9.20
2022-11-09T02:07:59.884Z,9.20
2022-11-09T02:10:32.600Z,9.20
2022-11-09T02:13:01.519Z,9.20
2022-11-09T02:15:30.950Z,9.20
2022-11-09T02:17:59.407Z,9.20
2022-11-09T02:20:30.602Z,9.20
2022-11-09T02:22:58.909Z,9.20
2022-11-09T02:25:27.115Z,9.20
2022-11-09T02:27:55.353Z,9.20
2022-11-09T02:30:25.026Z,9.20
2022-11-09T02:32:53.096Z,9.20
2022-11-09T02:35:21.023Z,9.20
2022-11-09T02:37:51.387Z,9.20
2022-11-09T02:40:23.607Z,9.20
2022-11-09T02:42:51.592Z,9.20
2022-11-09T02:45:19.816Z,9.20
2022-11-09T02:47:47.868Z,9.20
2022-11-09T02:50:16.183Z,9.20
2022-11-09T02:52:44.189Z,9.20
2022-11-09T02:55:13.616Z,9.20
2022-11-09T02:57:41.666Z,9.20
2022-11-09T03:00:10.671Z,9.20
2022-11-09T03:02:38.779Z,9.20
2022-11-09T03:05:07.445Z,9.20
2022-11-09T03:07:35.438Z,9.20
2022-11-09T03:10:03.971Z,9.20
2022-11-09T03:12:33.554Z,9.30
2022-11-09T03:15:03.228Z,9.20
2022-11-09T03:17:37.605Z,9.30
2022-11-09T03:20:06.388Z,9.20
2022-11-09T03:22:37.070Z,9.20
2022-11-09T03:25:07.978Z,9.20
2022-11-09T03:27:37.603Z,9.20
2022-11-09T03:30:15.396Z,9.20
2022-11-09T03:32:48.048Z,9.20
2022-11-09T03:35:18.430Z,9.20
2022-11-09T03:37:46.773Z,9.20
2022-11-09T03:40:14.987Z,9.30
2022-11-09T03:42:46.384Z,9.20
2022-11-09T03:45:15.039Z,9.20
2022-11-09T03:47:47.153Z,9.20
2022-11-09T03:50:17.183Z,9.20
2022-11-09T03:52:50.932Z,9.20
2022-11-09T03:55:19.238Z,9.20
2022-11-09T03:57:48.771Z,9.20
2022-11-09T04:00:19.122Z,9.20
2022-11-09T04:02:47.442Z,9.20
2022-11-09T04:05:18.427Z,9.20
2022-11-09T04:08:07.821Z,9.20
2022-11-09T04:10:38.626Z,9.20
2022-11-09T04:13:19.251Z,9.20
2022-11-09T04:15:47.852Z,9.20
2022-11-09T04:18:26.754Z,9.20
2022-11-09T04:20:54.941Z,9.20
2022-11-09T04:23:24.214Z,9.20
2022-11-09T04:25:52.657Z,9.20
2022-11-09T04:28:31.481Z,9.20
2022-11-09T04:31:02.354Z,9.20
2022-11-09T04:33:30.772Z,9.20
2022-11-09T04:36:15.298Z,9.20
2022-11-09T04:38:43.448Z,9.20
2022-11-09T04:41:11.707Z,9.20
2022-11-09T04:43:47.463Z,9.20
2022-11-09T04:46:15.656Z,9.20
2022-11-09T04:48:44.451Z,9.20
2022-11-09T04:51:15.361Z,9.20
2022-11-09T04:53:45.759Z,9.20
2022-11-09T04:56:28.028Z,9.20
2022-11-09T04:59:05.946Z,9.20
2022-11-09T05:01:34.345Z,9.20
2022-11-09T05:04:08.142Z,9.20
2022-11-09T05:06:53.802Z,9.20
2022-11-09T05:09:23.746Z,9.20
2022-11-09T05:11:58.369Z,9.20
2022-11-09T05:14:34.583Z,9.20
2022-11-09T05:17:10.839Z,9.20
2022-11-09T05:20:03.558Z,9.10
2022-11-09T05:23:10.148Z,9.20
2022-11-09T05:25:49.984Z,9.20
2022-11-09T05:28:21.435Z,9.20
2022-11-09T05:30:50.968Z,9.10
2022-11-09T05:33:19.609Z,9.00
2022-11-09T05:35:48.101Z,8.80
2022-11-09T05:38:16.319Z,8.70
2022-11-09T05:40:44.522Z,8.60
2022-11-09T05:43:13.022Z,8.50
2022-11-09T05:45:43.352Z,8.50
2022-11-09T05:48:14.660Z,8.40
2022-11-09T05:50:43.753Z,8.40
2022-11-09T05:53:12.725Z,8.30
2022-11-09T05:55:41.186Z,8.30
2022-11-09T05:58:09.779Z,8.20
2022-11-09T06:00:38.137Z,8.20
2022-11-09T06:03:08.006Z,8.30
2022-11-09T06:05:38.871Z,8.30
2022-11-09T06:08:11.239Z,8.30
2022-11-09T06:10:45.008Z,8.30
2022-11-09T06:13:20.012Z,8.20
2022-11-09T06:16:16.330Z,8.30
2022-11-09T06:18:48.215Z,8.30
2022-11-09T06:21:28.487Z,8.50
2022-11-09T06:24:03.316Z,8.60
2022-11-09T06:26:39.282Z,8.70
2022-11-09T06:29:19.687Z,8.80
2022-11-09T06:31:51.419Z,8.80
2022-11-09T06:34:21.920Z,8.90
2022-11-09T06:37:10.764Z,8.90
2022-11-09T06:39:41.186Z,8.90
2022-11-09T06:42:10.959Z,9.00
2022-11-09T06:44:42.349Z,9.00
2022-11-09T06:47:12.963Z,8.90
2022-11-09T06:49:41.196Z,8.90
2022-11-09T06:52:10.913Z,8.90
2022-11-09T06:54:42.356Z,8.90
2022-11-09T06:57:10.580Z,8.90
2022-11-09T06:59:41.212Z,8.90
2022-11-09T07:02:10.989Z,8.90
2022-11-09T07:04:39.196Z,8.90
2022-11-09T07:07:10.436Z,8.90
2022-11-09T07:09:38.904Z,9.00
2022-11-09T07:12:07.779Z,9.00
2022-11-09T07:14:38.549Z,9.10
2022-11-09T07:17:06.911Z,9.10
2022-11-09T07:19:35.014Z,9.10
2022-11-09T07:22:03.188Z,9.10
2022-11-09T07:24:32.949Z,9.20
2022-11-09T07:27:00.979Z,9.30
2022-11-09T07:29:29.254Z,9.30
2022-11-09T07:32:00.248Z,9.30
2022-11-09T07:34:29.753Z,9.30
2022-11-09T07:36:57.959Z,9.40
2022-11-09T07:39:26.249Z,9.40
2022-11-09T07:41:57.222Z,9.40
2022-11-09T07:44:25.595Z,9.50
2022-11-09T07:46:53.725Z,9.50
2022-11-09T07:49:30.948Z,9.50
2022-11-09T07:52:01.485Z,9.50
2022-11-09T07:54:32.084Z,9.50
2022-11-09T07:57:04.972Z,9.60
2022-11-09T07:59:34.164Z,9.60
2022-11-09T08:02:02.694Z,9.70
2022-11-09T08:04:33.578Z,9.70
2022-11-09T08:07:06.989Z,9.80
2022-11-09T08:09:45.608Z,9.80
2022-11-09T08:12:21.567Z,9.90
2022-11-09T08:14:52.725Z,10.00
2022-11-09T08:17:23.902Z,10.20
2022-11-09T08:19:52.050Z,10.30
2022-11-09T08:22:30.356Z,10.40
2022-11-09T08:25:05.703Z,10.60
2022-11-09T08:27:41.641Z,10.60
2022-11-09T08:30:14.028Z,10.70
2022-11-09T08:32:42.519Z,10.80
2022-11-09T08:35:18.026Z,10.80
2022-11-09T08:37:54.663Z,10.90
2022-11-09T08:40:28.286Z,11.00
2022-11-09T08:43:08.889Z,11.20
2022-11-09T08:45:39.255Z,11.30
2022-11-09T08:48:12.780Z,11.40
2022-11-09T08:50:41.071Z,11.50
2022-11-09T08:53:09.325Z,11.50
2022-11-09T08:55:40.455Z,11.60
2022-11-09T08:58:16.944Z,11.70
2022-11-09T09:00:49.136Z,11.80
2022-11-09T09:03:22.457Z,12.00
2022-11-09T09:06:03.942Z,12.10
2022-11-09T09:08:35.967Z,12.20
2022-11-09T09:11:14.395Z,12.20
2022-11-09T09:13:53.638Z,12.20
2022-11-09T09:16:26.677Z,12.20
2022-11-09T09:18:56.789Z,12.20
2022-11-09T09:21:32.748Z,12.20
2022-11-09T09:24:08.114Z,12.10
2022-11-09T09:26:41.941Z,12.10
2022-11-09T09:29:15.387Z,12.00
2022-11-09T09:31:50.830Z,12.10
2022-11-09T09:34:19.335Z,12.20
2022-11-09T09:36:56.740Z,12.20
2022-11-09T09:39:25.066Z,12.20
2022-11-09T09:42:08.884Z,12.30
2022-11-09T09:44:47.037Z,12.40
2022-11-09T09:47:18.781Z,12.50
2022-11-09T09:49:53.700Z,12.70
2022-11-09T09:52:36.380Z,12.70
2022-11-09T09:55:11.143Z,12.80
2022-11-09T09:57:43.080Z,12.90
2022-11-09T10:00:21.890Z,12.90
2022-11-09T10:02:51.275Z,13.00
2022-11-09T10:05:30.082Z,13.00
2022-11-09T10:08:08.955Z,13.10
2022-11-09T10:10:49.479Z,13.10
2022-11-09T10:13:59.859Z,13.00
2022-11-09T10:16:36.946Z,13.00
2022-11-09T10:19:28.023Z,13.10
2022-11-09T10:22:04.429Z,13.10
2022-11-09T10:24:58.634Z,13.30
2022-11-09T10:27:35.995Z,13.40
2022-11-09T10:30:13.042Z,13.50
2022-11-09T10:32:44.557Z,13.50
2022-11-09T10:35:21.511Z,13.40
2022-11-09T10:37:52.328Z,13.30
2022-11-09T10:40:25.012Z,13.30
2022-11-09T10:42:55.160Z,13.30
2022-11-09T10:45:31.370Z,13.30
2022-11-09T10:48:04.697Z,13.30
2022-11-09T10:50:42.774Z,13.20
2022-11-09T10:53:20.633Z,13.20
2022-11-09T10:55:54.848Z,13.20
2022-11-09T10:58:29.356Z,13.20
2022-11-09T11:01:14.539Z,13.30
2022-11-09T11:03:45.980Z,13.20
2022-11-09T11:06:18.131Z,13.20
2022-11-09T11:08:48.475Z,13.30
2022-11-09T11:11:35.449Z,13.30
2022-11-09T11:14:23.409Z,13.30
2022-11-09T11:16:53.709Z,13.30
2022-11-09T11:19:35.952Z,13.40
2022-11-09T11:22:23.102Z,13.40
2022-11-09T11:24:59.760Z,13.50
2022-11-09T11:27:37.109Z,13.50
2022-11-09T11:30:14.138Z,13.60
2022-11-09T11:32:50.167Z,13.70
2022-11-09T11:35:27.115Z,13.70
2022-11-09T11:38:05.835Z,13.80
2022-11-09T11:40:40.047Z,13.80
2022-11-09T11:43:30.784Z,13.80
2022-11-09T11:46:35.355Z,13.90
2022-11-09T11:49:42.761Z,13.90
2022-11-09T11:52:21.070Z,13.90
2022-11-09T11:55:09.355Z,14.00
2022-11-09T11:57:49.438Z,14.00
2022-11-09T12:00:21.928Z,14.00
2022-11-09T12:03:18.100Z,14.10
2022-11-09T12:06:18.800Z,14.00
2022-11-09T12:09:34.460Z,14.10
2022-11-09T12:12:28.460Z,14.10
2022-11-09T12:15:27.060Z,14.00
2022-11-09T12:18:08.811Z,14.00
2022-11-09T12:20:50.587Z,14.10
2022-11-09T12:23:35.608Z,14.10
2022-11-09T12:26:23.840Z,14.10
2022-11-09T12:29:09.091Z,14.10
2022-11-09T12:31:51.013Z,14.00
2022-11-09T12:34:24.809Z,14.00
2022-11-09T12:36:57.338Z,14.00
2022-11-09T12:39:33.354Z,14.10
2022-11-09T12:42:13.483Z,14.00
2022-11-09T12:44:48.418Z,14.00
2022-11-09T12:47:28.097Z,14.00
2022-11-09T12:50:01.694Z,14.00
2022-11-09T12:52:33.487Z,14.00
2022-11-09T12:55:04.133Z,14.00
2022-11-09T12:57:34.305Z,14.00
2022-11-09T13:00:04.181Z,14.00
2022-11-09T13:02:36.303Z,14.10
2022-11-09T13:05:07.823Z,14.20
2022-11-09T13:07:50.616Z,14.10
2022-11-09T13:10:32.101Z,14.20
2022-11-09T13:13:18.193Z,14.30
2022-11-09T13:16:06.042Z,14.30
2022-11-09T13:18:52.932Z,14.30
2022-11-09T13:21:36.944Z,14.10
2022-11-09T13:24:54.012Z,14.10
2022-11-09T13:27:43.157Z,14.10
2022-11-09T13:30:41.946Z,14.10
2022-11-09T13:33:22.487Z,14.10
2022-11-09T13:36:21.391Z,14.10
2022-11-09T13:39:29.343Z,14.10
2022-11-09T13:41:57.651Z,14.10
2022-11-09T13:44:32.579Z,14.10
2022-11-09T13:47:06.440Z,14.10
2022-11-09T13:49:43.476Z,14.10
2022-11-09T13:52:47.543Z,14.10
2022-11-09T13:55:27.114Z,14.10
2022-11-09T13:57:56.972Z,14.20
2022-11-09T14:00:27.757Z,14.10
2022-11-09T14:03:03.506Z,14.10
2022-11-09T14:05:34.201Z,14.10
2022-11-09T14:08:04.855Z,14.10
2022-11-09T14:11:19.315Z,14.00
2022-11-09T14:14:31.609Z,14.10
2022-11-09T14:17:07.938Z,14.10
2022-11-09T14:19:47.719Z,14.10
2022-11-09T14:22:17.765Z,14.10
2022-11-09T14:24:46.774Z,14.10
2022-11-09T14:27:18.301Z,14.00
2022-11-09T14:29:55.183Z,14.00
2022-11-09T14:32:30.422Z,14.00
2022-11-09T14:35:24.965Z,14.00
2022-11-09T14:37:54.595Z,14.00
2022-11-09T14:40:26.695Z,13.90
2022-11-09T14:42:58.420Z,13.90
2022-11-09T14:45:29.874Z,13.90
2022-11-09T14:48:00.067Z,13.90
2022-11-09T14:50:32.923Z,13.80
2022-11-09T14:53:04.479Z,13.80
2022-11-09T14:55:42.151Z,13.80
2022-11-09T14:58:14.105Z,13.80
2022-11-09T15:00:45.962Z,13.70
2022-11-09T15:03:32.435Z,13.60
2022-11-09T15:06:07.481Z,13.60
2022-11-09T15:08:37.527Z,13.60
2022-11-09T15:11:05.769Z,13.50
2022-11-09T15:13:37.085Z,13.50
2022-11-09T15:16:07.013Z,13.40
2022-11-09T15:18:44.720Z,13.40
2022-11-09T15:21:20.833Z,13.40
2022-11-09T15:24:04.255Z,13.30
2022-11-09T15:26:38.735Z,13.30
2022-11-09T15:29:39.887Z,13.30
2022-11-09T15:32:17.029Z,13.20
2022-11-09T15:34:57.854Z,13.10
2022-11-09T15:37:38.682Z,13.00
2022-11-09T15:40:13.012Z,13.00
2022-11-09T15:42:45.235Z,13.00
2022-11-09T15:45:21.140Z,13.00
2022-11-09T15:48:02.468Z,12.90
2022-11-09T15:50:34.749Z,12.90
2022-11-09T15:53:04.605Z,12.90
2022-11-09T15:55:33.159Z,12.90
2022-11-09T15:58:01.387Z,12.80
2022-11-09T16:00:29.727Z,12.70
2022-11-09T16:02:58.107Z,12.70
2022-11-09T16:05:27.784Z,12.70
2022-11-09T16:07:56.458Z,12.70
2022-11-09T16:10:27.609Z,12.70
2022-11-09T16:12:56.868Z,12.60
2022-11-09T16:15:25.778Z,12.60
2022-11-09T16:17:54.156Z,12.60
2022-11-09T16:20:22.215Z,12.60
2022-11-09T16:22:52.870Z,12.60
2022-11-09T16:25:21.434Z,12.50
2022-11-09T16:27:51.592Z,12.50
2022-11-09T16:30:21.188Z,12.40
2022-11-09T16:32:49.269Z,12.40
2022-11-09T16:35:27.307Z,12.40
2022-11-09T16:37:56.708Z,12.30
2022-11-09T16:40:25.873Z,12.30
2022-11-09T16:42:55.601Z,12.30
2022-11-09T16:45:25.884Z,12.30
2022-11-09T16:48:15.755Z,12.20
2022-11-09T16:50:44.886Z,12.20
2022-11-09T16:53:13.204Z,12.20
2022-11-09T16:55:41.268Z,12.10
2022-11-09T16:58:10.778Z,12.10
2022-11-09T17:01:14.530Z,12.00
2022-11-09T17:03:33.819Z,12.00
2022-11-09T17:06:02.638Z,12.00
2022-11-09T17:08:31.236Z,11.90
2022-11-09T17:10:59.445Z,11.90
2022-11-09T17:13:29.179Z,11.90
2022-11-09T17:15:57.234Z,11.80
2022-11-09T17:18:25.468Z,11.80
2022-11-09T17:20:53.742Z,11.80
2022-11-09T17:23:22.213Z,11.80
2022-11-09T17:25:57.831Z,11.70
2022-11-09T17:28:26.946Z,11.70
2022-11-09T17:30:57.462Z,11.60
2022-11-09T17:33:26.068Z,11.60
2022-11-09T17:36:01.256Z,11.60
2022-11-09T17:38:30.134Z,11.60
2022-11-09T17:41:04.271Z,11.50
2022-11-09T17:43:33.410Z,11.50
2022-11-09T17:46:06.061Z,11.50
2022-11-09T17:48:34.644Z,11.50
2022-11-09T17:51:04.015Z,11.40
2022-11-09T17:53:32.198Z,11.50
2022-11-09T17:56:02.112Z,11.40
2022-11-09T17:58:30.659Z,11.40
2022-11-09T18:01:07.492Z,11.40
2022-11-09T18:03:37.385Z,11.40
2022-11-09T18:06:10.221Z,11.30
2022-11-09T18:08:38.366Z,11.30
2022-11-09T18:11:06.859Z,11.30
2022-11-09T18:13:35.025Z,11.30
2022-11-09T18:16:10.166Z,11.30
2022-11-09T18:18:41.386Z,11.20
2022-11-09T18:21:10.593Z,11.20
2022-11-09T18:23:38.871Z,11.20
2022-11-09T18:26:07.955Z,11.20
2022-11-09T18:28:36.571Z,11.20
2022-11-09T18:31:06.398Z,11.10
2022-11-09T18:33:36.157Z,11.10
2022-11-09T18:36:06.029Z,11.10
2022-11-09T18:38:34.427Z,11.10
2022-11-09T18:41:04.631Z,11.10
2022-11-09T18:43:33.425Z,11.10
2022-11-09T18:46:03.027Z,11.10
2022-11-09T18:48:31.987Z,11.10
2022-11-09T18:51:02.185Z,11.10
2022-11-09T18:53:34.821Z,11.10
2022-11-09T18:56:06.827Z,11.00
2022-11-09T18:58:35.769Z,11.00
2022-11-09T19:01:05.382Z,11.00
2022-11-09T19:03:33.813Z,11.00
2022-11-09T19:06:07.381Z,11.00
2022-11-09T19:08:52.948Z,11.00
2022-11-09T19:11:21.076Z,11.00
2022-11-09T19:13:49.513Z,11.10
2022-11-09T19:16:20.639Z,11.00
2022-11-09T19:18:49.660Z,11.00
2022-11-09T19:21:32.293Z,11.00
2022-11-09T19:24:01.137Z,11.00
2022-11-09T19:26:29.961Z,11.10
2022-11-09T19:28:58.117Z,11.10
2022-11-09T19:31:26.620Z,11.10
2022-11-09T19:33:54.811Z,11.10
2022-11-09T19:36:31.030Z,11.10
2022-11-09T19:38:59.675Z,11.10
2022-11-09T19:41:27.737Z,11.00
2022-11-09T19:43:58.460Z,11.00
2022-11-09T19:46:27.355Z,11.00
2022-11-09T19:48:55.426Z,11.00
2022-11-09T19:51:25.146Z,11.00
2022-11-09T19:53:54.586Z,11.00
2022-11-09T19:56:24.757Z,11.00
2022-11-09T19:58:54.445Z,11.00
2022-11-09T20:01:22.698Z,11.00
2022-11-09T20:03:51.867Z,11.00
2022-11-09T20:06:21.218Z,11.00
2022-11-09T20:08:52.291Z,11.00
2022-11-09T20:11:36.109Z,10.90
2022-11-09T20:14:04.962Z,11.00
2022-11-09T20:16:33.753Z,11.00
2022-11-09T20:19:02.529Z,11.00
2022-11-09T20:21:30.721Z,11.00
2022-11-09T20:24:01.326Z,11.00
2022-11-09T20:26:31.233Z,10.90
2022-11-09T20:29:00.760Z,10.90
2022-11-09T20:31:33.508Z,10.90
2022-11-09T20:34:02.959Z,10.90
2022-11-09T20:36:35.169Z,10.90
2022-11-09T20:39:05.578Z,10.90
2022-11-09T20:41:33.892Z,10.90
2022-11-09T20:44:01.955Z,10.90
2022-11-09T20:46:35.773Z,10.90
2022-11-09T20:49:05.894Z,10.90
2022-11-09T20:51:34.511Z,10.90
2022-11-09T20:54:07.575Z,10.90
2022-11-09T20:56:37.937Z,10.90
2022-11-09T20:59:06.249Z,10.90
2022-11-09T21:01:34.813Z,10.90
2022-11-09T21:04:03.043Z,10.90
2022-11-09T21:06:31.523Z,10.80
2022-11-09T21:09:01.108Z,10.80
2022-11-09T21:11:35.626Z,10.80
2022-11-09T21:14:04.456Z,10.80
2022-11-09T21:16:32.738Z,10.80
2022-11-09T21:19:00.747Z,10.80
2022-11-09T21:21:35.067Z,10.80
2022-11-09T21:24:22.220Z,10.80
2022-11-09T21:27:08.920Z,10.80
2022-11-09T21:29:51.753Z,10.80
2022-11-09T21:32:19.741Z,10.80
2022-11-09T21:34:48.109Z,10.80
2022-11-09T21:37:16.345Z,10.80
2022-11-09T21:39:45.020Z,10.80
2022-11-09T21:42:15.260Z,10.80
2022-11-09T21:44:43.507Z,10.80
2022-11-09T21:47:11.598Z,10.80
2022-11-09T21:49:39.652Z,10.80
2022-11-09T21:52:07.868Z,10.80
2022-11-09T21:54:36.174Z,10.80
2022-11-09T21:57:04.464Z,10.70
2022-11-09T21:59:34.175Z,10.70
2022-11-09T22:02:02.392Z,10.70
2022-11-09T22:04:30.553Z,10.70
2022-11-09T22:06:58.659Z,10.70
2022-11-09T22:09:32.470Z,10.70
2022-11-09T22:12:25.645Z,10.70
2022-11-09T22:15:12.628Z,10.70
2022-11-09T22:17:40.665Z,10.70
2022-11-09T22:20:27.751Z,10.70
2022-11-09T22:22:55.772Z,10.80
2022-11-09T22:25:23.744Z,10.80
2022-11-09T22:27:51.984Z,10.80
2022-11-09T22:30:21.554Z,10.70
2022-11-09T22:32:49.489Z,10.70
2022-11-09T22:35:17.874Z,10.70
2022-11-09T22:37:46.061Z,10.70
2022-11-09T22:40:14.236Z,10.70
2022-11-09T22:42:42.612Z,10.70
2022-11-09T22:45:11.553Z,10.70
2022-11-09T22:47:41.700Z,10.60
2022-11-09T22:50:10.029Z,10.60
2022-11-09T22:52:38.080Z,10.60
2022-11-09T22:55:06.886Z,10.60
2022-11-09T22:57:37.065Z,10.60
2022-11-09T23:00:06.302Z,10.60
2022-11-09T23:02:34.407Z,10.60
2022-11-09T23:05:04.153Z,10.60
2022-11-09T23:07:32.440Z,10.50
2022-11-09T23:10:00.520Z,10.50
2022-11-09T23:12:28.550Z,10.50
2022-11-09T23:15:05.347Z,10.50
2022-11-09T23:17:51.465Z,10.50
2022-11-09T23:20:21.394Z,10.50
2022-11-09T23:22:50.535Z,10.50
2022-11-09T23:25:36.291Z,10.60
2022-11-09T23:28:04.705Z,10.50
2022-11-09T23:30:32.788Z,10.50
2022-11-09T23:33:02.208Z,10.50
2022-11-09T23:35:31.647Z,10.50
2022-11-09T23:38:00.501Z,10.50
2022-11-09T23:40:28.964Z,10.50
2022-11-09T23:43:01.500Z,10.50
2022-11-09T23:45:35.447Z,10.50
2022-11-09T23:48:04.570Z,10.50
2022-11-09T23:50:34.473Z,10.50
2022-11-09T23:53:02.822Z,10.50
2022-11-09T23:55:31.381Z,10.40
2022-11-09T23:58:01.960Z,10.40
